createdAt,value
2024-02-06T00:02:02.701Z,8.40
2024-02-06T00:04:30.094Z,3.77
2024-02-06T00:06:57.356Z,5.57
2024-02-06T00:09:24.613Z,6.37
2024-02-06T00:11:51.759Z,6.53
2024-02-06T00:14:18.865Z,5.20
2024-02-06T00:16:47.395Z,6.03
2024-02-06T00:19:14.902Z,5.20
2024-02-06T00:21:42.178Z,4.87
2024-02-06T00:24:09.370Z,6.00
2024-02-06T00:26:36.551Z,7.33
2024-02-06T00:29:03.675Z,3.43
2024-02-06T00:31:31.001Z,8.87
2024-02-06T00:33:58.366Z,8.60
2024-02-06T00:36:25.638Z,5.33
2024-02-06T00:38:52.764Z,5.70
2024-02-06T00:41:19.847Z,6.73
2024-02-06T00:43:47.001Z,6.50
2024-02-06T00:46:14.107Z,5.60
2024-02-06T00:48:41.395Z,5.13
2024-02-06T00:51:10.028Z,9.57
2024-02-06T00:53:37.455Z,6.10
2024-02-06T00:56:07.875Z,8.87
2024-02-06T00:58:35.650Z,5.17
2024-02-06T01:01:03.044Z,7.07
2024-02-06T01:03:30.447Z,4.87
2024-02-06T01:05:57.691Z,6.57
2024-02-06T01:08:25.273Z,4.93
2024-02-06T01:10:52.429Z,4.73
2024-02-06T01:13:19.585Z,7.70
2024-02-06T01:15:46.809Z,8.70
2024-02-06T01:18:13.949Z,8.57
2024-02-06T01:20:41.130Z,4.53
2024-02-06T01:23:08.224Z,9.53
2024-02-06T01:25:35.823Z,9.13
2024-02-06T01:28:03.018Z,4.03
2024-02-06T01:30:30.415Z,6.30
2024-02-06T01:32:57.700Z,6.83
2024-02-06T01:35:24.964Z,6.77
2024-02-06T01:37:52.083Z,6.23
2024-02-06T01:40:19.385Z,7.00
2024-02-06T01:42:48.281Z,7.03
2024-02-06T01:45:15.392Z,7.90
2024-02-06T01:47:43.432Z,6.73
2024-02-06T01:50:10.900Z,6.00
2024-02-06T01:52:38.334Z,7.27
2024-02-06T01:55:06.055Z,5.77
2024-02-06T01:57:36.407Z,8.23
2024-02-06T02:00:05.584Z,7.00
2024-02-06T02:02:33.036Z,8.00
2024-02-06T02:05:00.369Z,8.00
2024-02-06T02:07:28.236Z,6.03
2024-02-06T02:09:55.487Z,8.93
2024-02-06T02:12:22.656Z,9.97
2024-02-06T02:14:49.781Z,6.67
2024-02-06T02:17:16.860Z,10.23
2024-02-06T02:19:44.081Z,7.10
2024-02-06T02:22:11.298Z,8.70
2024-02-06T02:24:38.472Z,8.60
2024-02-06T02:27:05.940Z,7.00
2024-02-06T02:29:33.603Z,4.83
2024-02-06T02:32:00.938Z,7.07
2024-02-06T02:34:28.096Z,6.53
2024-02-06T02:36:55.332Z,8.07
2024-02-06T02:39:23.788Z,5.73
2024-02-06T02:41:50.881Z,7.63
2024-02-06T02:44:18.015Z,7.30
2024-02-06T02:46:45.597Z,7.57
2024-02-06T02:49:14.172Z,8.00
2024-02-06T02:51:41.433Z,9.87
2024-02-06T02:54:11.639Z,5.70
2024-02-06T02:56:38.750Z,6.87
2024-02-06T02:59:06.299Z,7.13
2024-02-06T03:01:33.635Z,5.03
2024-02-06T03:04:00.937Z,6.70
2024-02-06T03:06:28.214Z,8.63
2024-02-06T03:08:55.989Z,7.30
2024-02-06T03:11:23.111Z,8.57
2024-02-06T03:13:52.011Z,7.87
2024-02-06T03:16:19.173Z,4.90
2024-02-06T03:18:46.364Z,8.77
2024-02-06T03:21:13.534Z,4.97
2024-02-06T03:23:40.787Z,7.03
2024-02-06T03:26:07.888Z,6.57
2024-02-06T03:28:35.136Z,10.60
2024-02-06T03:31:02.356Z,6.67
2024-02-06T03:33:29.661Z,5.50
2024-02-06T03:35:56.887Z,10.60
2024-02-06T03:38:24.047Z,6.03
2024-02-06T03:40:51.233Z,9.23
2024-02-06T03:43:18.451Z,6.87
2024-02-06T03:45:46.350Z,6.30
2024-02-06T03:48:14.944Z,5.20
2024-02-06T03:50:42.197Z,4.90
2024-02-06T03:53:10.009Z,5.17
2024-02-06T03:55:37.588Z,4.60
2024-02-06T03:58:05.002Z,6.47
2024-02-06T04:00:32.442Z,6.70
2024-02-06T04:02:59.631Z,6.97
2024-02-06T04:05:26.776Z,12.10
2024-02-06T04:07:53.995Z,6.63
2024-02-06T04:10:21.748Z,8.53
2024-02-06T04:12:48.836Z,7.57
2024-02-06T04:15:15.986Z,7.43
2024-02-06T04:17:43.178Z,5.50
2024-02-06T04:20:10.585Z,9.20
2024-02-06T04:22:37.810Z,5.27
2024-02-06T04:25:05.140Z,8.27
2024-02-06T04:27:32.856Z,7.70
2024-02-06T04:29:59.973Z,6.03
2024-02-06T04:32:27.094Z,6.77
2024-02-06T04:34:54.319Z,8.60
2024-02-06T04:37:21.983Z,8.00
2024-02-06T04:39:49.169Z,7.67
2024-02-06T04:42:16.320Z,7.60
2024-02-06T04:44:43.525Z,10.40
2024-02-06T04:47:10.706Z,11.33
2024-02-06T04:49:37.990Z,11.73
2024-02-06T04:52:05.482Z,5.83
2024-02-06T04:54:32.627Z,8.37
2024-02-06T04:56:59.740Z,7.70
2024-02-06T04:59:26.836Z,6.13
2024-02-06T05:01:54.005Z,7.17
2024-02-06T05:04:21.308Z,4.93
2024-02-06T05:06:50.828Z,9.00
2024-02-06T05:09:17.989Z,6.37
2024-02-06T05:11:45.114Z,5.53
2024-02-06T05:14:12.316Z,5.97
2024-02-06T05:16:39.621Z,6.13
2024-02-06T05:19:08.750Z,8.40
2024-02-06T05:21:36.000Z,11.00
2024-02-06T05:24:03.109Z,6.50
2024-02-06T05:26:30.349Z,6.50
2024-02-06T05:28:57.481Z,6.27
2024-02-06T05:31:24.653Z,6.63
2024-02-06T05:33:51.799Z,6.20
2024-02-06T05:36:18.992Z,8.27
2024-02-06T05:38:46.073Z,7.67
2024-02-06T05:41:13.916Z,5.70
2024-02-06T05:43:41.484Z,6.63
2024-02-06T05:46:08.669Z,7.00
2024-02-06T05:48:37.393Z,9.17
2024-02-06T05:51:05.885Z,6.53
2024-02-06T05:53:36.320Z,8.30
2024-02-06T05:56:08.197Z,7.20
2024-02-06T05:58:37.989Z,8.10
2024-02-06T06:01:05.851Z,7.07
2024-02-06T06:03:33.105Z,5.13
2024-02-06T06:06:00.440Z,5.70
2024-02-06T06:08:27.904Z,9.30
2024-02-06T06:10:55.173Z,6.53
2024-02-06T06:13:22.339Z,9.00
2024-02-06T06:15:49.530Z,5.20
2024-02-06T06:18:16.763Z,7.17
2024-02-06T06:20:44.005Z,4.43
2024-02-06T06:23:11.103Z,5.93
2024-02-06T06:25:38.289Z,7.40
2024-02-06T06:28:05.573Z,7.53
2024-02-06T06:30:32.799Z,5.60
2024-02-06T06:33:00.193Z,5.03
2024-02-06T06:35:27.418Z,7.10
2024-02-06T06:37:54.716Z,7.60
2024-02-06T06:40:21.850Z,5.93
2024-02-06T06:42:49.034Z,5.50
2024-02-06T06:45:16.218Z,6.37
2024-02-06T06:47:43.479Z,7.80
2024-02-06T06:50:11.441Z,7.60
2024-02-06T06:52:44.541Z,5.27
2024-02-06T06:55:11.843Z,11.53
2024-02-06T06:57:43.752Z,7.97
2024-02-06T07:00:12.530Z,6.97
2024-02-06T07:02:40.299Z,7.10
2024-02-06T07:05:13.442Z,5.57
2024-02-06T07:07:40.676Z,3.63
2024-02-06T07:10:08.353Z,7.47
2024-02-06T07:12:35.600Z,6.33
2024-02-06T07:15:04.931Z,6.07
2024-02-06T07:17:32.307Z,4.90
2024-02-06T07:19:59.522Z,4.50
2024-02-06T07:22:27.027Z,5.10
2024-02-06T07:24:54.238Z,7.27
2024-02-06T07:27:22.091Z,6.87
2024-02-06T07:29:50.810Z,5.77
2024-02-06T07:32:18.030Z,4.30
2024-02-06T07:34:45.697Z,4.57
2024-02-06T07:37:12.963Z,2.60
2024-02-06T07:39:40.830Z,7.37
2024-02-06T07:42:08.963Z,4.70
2024-02-06T07:44:36.195Z,6.20
2024-02-06T07:47:03.395Z,4.67
2024-02-06T07:49:30.646Z,3.07
2024-02-06T07:51:58.056Z,4.63
2024-02-06T07:54:25.225Z,6.30
2024-02-06T07:56:52.522Z,4.13
2024-02-06T07:59:20.035Z,3.03
2024-02-06T08:01:47.905Z,3.87
2024-02-06T08:04:15.298Z,4.30
2024-02-06T08:06:42.677Z,2.40
2024-02-06T08:09:09.929Z,5.53
2024-02-06T08:11:37.448Z,3.83
2024-02-06T08:14:05.102Z,7.13
2024-02-06T08:16:32.284Z,3.10
2024-02-06T08:18:59.474Z,5.17
2024-02-06T08:21:26.627Z,3.83
2024-02-06T08:23:55.904Z,2.43
2024-02-06T08:26:23.190Z,4.57
2024-02-06T08:28:50.404Z,1.93
2024-02-06T08:31:18.380Z,1.97
2024-02-06T08:33:45.951Z,3.73
2024-02-06T08:36:16.387Z,2.20
2024-02-06T08:38:44.243Z,2.13
2024-02-06T08:41:11.440Z,2.63
2024-02-06T08:43:46.072Z,2.40
2024-02-06T08:46:20.070Z,2.63
2024-02-06T08:48:47.593Z,3.90
2024-02-06T08:51:14.880Z,2.43
2024-02-06T08:53:42.006Z,3.30
2024-02-06T08:56:09.124Z,5.23
2024-02-06T08:58:36.254Z,2.60
2024-02-06T09:01:04.219Z,2.23
2024-02-06T09:03:31.590Z,3.77
2024-02-06T09:05:58.960Z,2.80
2024-02-06T09:08:26.283Z,3.27
2024-02-06T09:10:53.602Z,2.27
2024-02-06T09:13:22.858Z,2.13
2024-02-06T09:15:50.519Z,1.80
2024-02-06T09:18:17.736Z,2.40
2024-02-06T09:20:45.323Z,3.60
2024-02-06T09:23:12.585Z,3.23
2024-02-06T09:25:43.423Z,4.40
2024-02-06T09:28:10.655Z,2.87
2024-02-06T09:30:40.784Z,2.10
2024-02-06T09:33:08.218Z,2.73
2024-02-06T09:35:35.553Z,1.43
2024-02-06T09:38:03.042Z,1.73
2024-02-06T09:40:33.066Z,3.13
2024-02-06T09:43:00.722Z,2.67
2024-02-06T09:45:27.977Z,2.50
2024-02-06T09:47:55.193Z,4.67
2024-02-06T09:50:22.366Z,1.47
2024-02-06T09:52:51.707Z,1.90
2024-02-06T09:55:21.882Z,2.27
2024-02-06T09:57:51.804Z,1.73
2024-02-06T10:00:20.189Z,2.63
2024-02-06T10:02:48.402Z,2.30
2024-02-06T10:05:22.225Z,2.03
2024-02-06T10:07:50.263Z,3.27
2024-02-06T10:10:19.672Z,3.70
2024-02-06T10:12:47.129Z,1.80
2024-02-06T10:15:18.976Z,1.90
2024-02-06T10:17:46.378Z,2.13
2024-02-06T10:20:13.916Z,2.37
2024-02-06T10:22:41.347Z,2.53
2024-02-06T10:25:11.289Z,1.77
2024-02-06T10:27:39.661Z,2.10
2024-02-06T10:30:11.718Z,3.50
2024-02-06T10:32:39.839Z,4.10
2024-02-06T10:35:09.003Z,1.63
2024-02-06T10:37:37.727Z,3.10
2024-02-06T10:40:09.076Z,2.10
2024-02-06T10:43:08.931Z,1.90
2024-02-06T10:45:23.591Z,4.93
2024-02-06T10:48:00.306Z,1.50
2024-02-06T10:50:28.338Z,3.17
2024-02-06T10:52:55.895Z,1.07
2024-02-06T10:55:23.586Z,3.37
2024-02-06T10:57:55.029Z,1.57
2024-02-06T11:00:23.578Z,1.50
2024-02-06T11:02:54.296Z,1.60
2024-02-06T11:05:21.436Z,2.90
2024-02-06T11:07:51.665Z,2.40
2024-02-06T11:10:22.737Z,2.07
2024-02-06T11:12:54.312Z,2.13
2024-02-06T11:15:23.069Z,1.30
2024-02-06T11:17:52.083Z,1.43
2024-02-06T11:20:22.857Z,1.57
2024-02-06T11:22:53.815Z,1.63
2024-02-06T11:25:21.452Z,2.80
2024-02-06T11:27:50.498Z,1.00
2024-02-06T11:30:18.510Z,2.57
2024-02-06T11:32:45.688Z,1.60
2024-02-06T11:35:12.913Z,1.53
2024-02-06T11:37:40.156Z,1.43
2024-02-06T11:40:09.062Z,1.43
2024-02-06T11:42:37.128Z,2.50
2024-02-06T11:45:10.916Z,3.17
2024-02-06T11:47:52.110Z,3.17
2024-02-06T11:50:28.513Z,2.03
2024-02-06T11:53:03.103Z,1.30
2024-02-06T11:55:33.594Z,2.33
2024-02-06T11:58:02.943Z,1.90
2024-02-06T12:00:30.579Z,1.33
2024-02-06T12:02:59.225Z,2.40
2024-02-06T12:05:27.642Z,3.30
2024-02-06T12:08:00.012Z,1.10
2024-02-06T12:10:31.769Z,2.07
2024-02-06T12:13:05.758Z,2.47
2024-02-06T12:15:33.493Z,2.73
2024-02-06T12:18:01.184Z,3.00
2024-02-06T12:20:28.486Z,2.10
2024-02-06T12:22:59.318Z,2.53
2024-02-06T12:25:27.644Z,2.20
2024-02-06T12:28:14.218Z,1.10
2024-02-06T12:30:50.334Z,1.60
2024-02-06T12:33:19.569Z,2.03
2024-02-06T12:35:47.820Z,1.77
2024-02-06T12:38:14.920Z,1.63
2024-02-06T12:40:45.719Z,1.47
2024-02-06T12:43:13.923Z,3.37
2024-02-06T12:45:42.194Z,2.63
2024-02-06T12:48:10.285Z,1.63
2024-02-06T12:50:37.713Z,1.67
2024-02-06T12:53:06.019Z,2.97
2024-02-06T12:55:34.414Z,2.93
2024-02-06T12:58:02.761Z,1.63
2024-02-06T13:00:30.555Z,2.07
2024-02-06T13:03:01.798Z,3.23
2024-02-06T13:05:31.597Z,2.47
2024-02-06T13:08:06.854Z,1.57
2024-02-06T13:10:34.768Z,2.60
2024-02-06T13:13:05.747Z,1.47
2024-02-06T13:15:33.946Z,1.30
2024-02-06T13:18:01.788Z,1.37
2024-02-06T13:20:32.679Z,1.53
2024-02-06T13:23:13.144Z,1.67
2024-02-06T13:25:40.846Z,2.10
2024-02-06T13:28:08.728Z,3.63
2024-02-06T13:30:37.602Z,0.80
2024-02-06T13:33:05.705Z,3.03
2024-02-06T13:35:33.178Z,0.77
2024-02-06T13:38:04.789Z,1.50
2024-02-06T13:40:33.390Z,0.67
2024-02-06T13:43:00.711Z,2.07
2024-02-06T13:45:27.922Z,1.67
2024-02-06T13:47:55.328Z,3.70
2024-02-06T13:50:23.047Z,2.33
2024-02-06T13:52:50.433Z,2.37
2024-02-06T13:55:17.678Z,1.70
2024-02-06T13:57:44.976Z,4.37
2024-02-06T14:00:15.876Z,1.50
2024-02-06T14:02:44.438Z,1.00
2024-02-06T14:05:11.922Z,3.13
2024-02-06T14:07:39.065Z,1.80
2024-02-06T14:10:06.531Z,5.17
2024-02-06T14:12:43.737Z,1.47
2024-02-06T14:15:14.674Z,1.47
2024-02-06T14:17:44.861Z,2.10
2024-02-06T14:20:13.030Z,2.27
2024-02-06T14:22:41.457Z,0.90
2024-02-06T14:25:10.195Z,1.50
2024-02-06T14:27:37.416Z,1.00
2024-02-06T14:30:05.423Z,4.03
2024-02-06T14:32:32.688Z,1.37
2024-02-06T14:35:00.108Z,1.10
2024-02-06T14:37:27.318Z,1.13
2024-02-06T14:39:55.158Z,2.00
2024-02-06T14:42:22.377Z,1.73
2024-02-06T14:44:52.322Z,0.97
2024-02-06T14:47:20.213Z,1.00
2024-02-06T14:49:47.707Z,1.23
2024-02-06T14:52:15.375Z,1.60
2024-02-06T14:54:42.772Z,1.73
2024-02-06T14:57:09.904Z,1.53
2024-02-06T14:59:39.795Z,2.33
2024-02-06T15:02:07.766Z,1.60
2024-02-06T15:04:37.458Z,1.97
2024-02-06T15:07:05.040Z,2.40
2024-02-06T15:09:32.923Z,1.57
2024-02-06T15:12:00.522Z,1.70
2024-02-06T15:14:30.946Z,1.27
2024-02-06T15:16:58.557Z,0.90
2024-02-06T15:19:25.888Z,1.23
2024-02-06T15:21:53.264Z,1.20
2024-02-06T15:24:23.304Z,3.83
2024-02-06T15:26:56.524Z,2.37
2024-02-06T15:29:24.302Z,3.27
2024-02-06T15:31:51.681Z,1.33
2024-02-06T15:34:18.995Z,1.60
2024-02-06T15:36:46.191Z,3.23
2024-02-06T15:39:16.718Z,3.43
2024-02-06T15:41:43.920Z,2.17
2024-02-06T15:44:15.240Z,1.17
2024-02-06T15:46:43.341Z,4.60
2024-02-06T15:49:10.517Z,5.00
2024-02-06T15:51:37.755Z,2.77
2024-02-06T15:54:04.892Z,1.67
2024-02-06T15:56:35.650Z,2.40
2024-02-06T15:59:04.643Z,1.83
2024-02-06T16:01:31.966Z,2.00
2024-02-06T16:03:59.214Z,2.67
2024-02-06T16:06:26.491Z,2.17
2024-02-06T16:08:53.639Z,1.97
2024-02-06T16:11:20.792Z,2.40
2024-02-06T16:13:47.969Z,2.60
2024-02-06T16:16:21.402Z,1.90
2024-02-06T16:18:48.714Z,2.73
2024-02-06T16:21:15.927Z,2.43
2024-02-06T16:23:44.230Z,1.80
2024-02-06T16:26:11.382Z,1.67
2024-02-06T16:28:38.546Z,2.53
2024-02-06T16:31:05.774Z,2.20
2024-02-06T16:33:33.155Z,2.97
2024-02-06T16:36:02.456Z,3.10
2024-02-06T16:38:29.832Z,1.30
2024-02-06T16:40:57.107Z,2.87
2024-02-06T16:43:27.286Z,2.97
2024-02-06T16:45:55.695Z,3.60
2024-02-06T16:48:23.469Z,2.13
2024-02-06T16:50:50.889Z,1.90
2024-02-06T16:53:18.039Z,4.00
2024-02-06T16:55:47.255Z,2.77
2024-02-06T16:58:15.680Z,3.50
2024-02-06T17:00:42.851Z,2.50
2024-02-06T17:03:10.130Z,2.57
2024-02-06T17:05:37.402Z,2.57
2024-02-06T17:08:08.688Z,3.27
2024-02-06T17:10:35.978Z,4.07
2024-02-06T17:13:03.867Z,4.47
2024-02-06T17:15:31.112Z,2.47
2024-02-06T17:17:58.357Z,3.60
2024-02-06T17:20:25.882Z,2.77
2024-02-06T17:22:53.329Z,3.27
2024-02-06T17:25:21.897Z,2.83
2024-02-06T17:27:49.926Z,3.83
2024-02-06T17:30:17.465Z,4.33
2024-02-06T17:32:45.532Z,4.47
2024-02-06T17:35:13.742Z,5.70
2024-02-06T17:37:41.085Z,3.50
2024-02-06T17:40:08.667Z,4.20
2024-02-06T17:42:36.302Z,5.00
2024-02-06T17:45:06.824Z,2.03
2024-02-06T17:47:35.564Z,4.23
2024-02-06T17:50:02.833Z,3.63
2024-02-06T17:52:30.124Z,4.77
2024-02-06T17:54:57.300Z,3.43
2024-02-06T17:57:24.405Z,5.23
2024-02-06T17:59:51.480Z,2.87
2024-02-06T18:02:18.656Z,3.07
2024-02-06T18:04:46.930Z,3.67
2024-02-06T18:07:14.303Z,5.03
2024-02-06T18:09:41.387Z,3.93
2024-02-06T18:12:08.496Z,2.97
2024-02-06T18:14:35.581Z,4.30
2024-02-06T18:17:17.873Z,4.13
2024-02-06T18:19:49.331Z,2.93
2024-02-06T18:22:17.521Z,4.37
2024-02-06T18:24:44.830Z,3.53
2024-02-06T18:27:12.273Z,6.40
2024-02-06T18:29:39.455Z,2.53
2024-02-06T18:32:06.723Z,3.83
2024-02-06T18:34:34.061Z,3.63
2024-02-06T18:37:01.313Z,4.73
2024-02-06T18:39:28.725Z,3.33
2024-02-06T18:41:55.839Z,2.60
2024-02-06T18:44:22.933Z,2.33
2024-02-06T18:46:50.128Z,2.73
2024-02-06T18:49:17.531Z,3.07
2024-02-06T18:51:45.061Z,3.87
2024-02-06T18:54:12.544Z,3.47
2024-02-06T18:56:39.647Z,2.37
2024-02-06T18:59:06.761Z,3.93
2024-02-06T19:01:34.179Z,6.63
2024-02-06T19:04:02.461Z,2.60
2024-02-06T19:06:29.848Z,2.13
2024-02-06T19:08:57.041Z,3.13
2024-02-06T19:11:24.371Z,3.37
2024-02-06T19:13:52.096Z,3.00
2024-02-06T19:16:19.271Z,2.90
2024-02-06T19:18:46.733Z,3.77
2024-02-06T19:21:13.868Z,4.57
2024-02-06T19:23:40.987Z,5.70
2024-02-06T19:26:08.124Z,5.83
2024-02-06T19:28:35.331Z,3.40
2024-02-06T19:31:02.504Z,3.83
2024-02-06T19:33:29.717Z,3.50
2024-02-06T19:35:56.882Z,3.10
2024-02-06T19:38:23.963Z,1.83
2024-02-06T19:40:51.620Z,4.43
2024-02-06T19:43:18.989Z,2.20
2024-02-06T19:45:46.879Z,3.43
2024-02-06T19:48:16.287Z,2.50
2024-02-06T19:50:44.033Z,2.87
2024-02-06T19:53:11.417Z,1.43
2024-02-06T19:55:39.898Z,3.53
2024-02-06T19:58:08.072Z,1.77
2024-02-06T20:00:36.232Z,2.33
2024-02-06T20:03:04.406Z,2.90
2024-02-06T20:05:31.701Z,2.13
2024-02-06T20:08:00.380Z,1.83
2024-02-06T20:10:27.636Z,2.97
2024-02-06T20:12:54.811Z,1.93
2024-02-06T20:15:21.997Z,1.77
2024-02-06T20:17:49.211Z,1.63
2024-02-06T20:20:16.376Z,1.93
2024-02-06T20:22:43.545Z,2.23
2024-02-06T20:25:10.745Z,2.43
2024-02-06T20:27:37.912Z,2.93
2024-02-06T20:30:05.813Z,3.30
2024-02-06T20:32:34.356Z,1.43
2024-02-06T20:35:01.699Z,3.03
2024-02-06T20:37:29.002Z,4.53
2024-02-06T20:39:56.186Z,2.23
2024-02-06T20:42:23.535Z,1.37
2024-02-06T20:44:50.714Z,2.30
2024-02-06T20:47:17.807Z,1.70
2024-02-06T20:49:45.391Z,2.80
2024-02-06T20:52:12.821Z,1.60
2024-02-06T20:54:40.420Z,1.70
2024-02-06T20:57:07.706Z,2.53
2024-02-06T20:59:34.852Z,2.90
2024-02-06T21:02:02.222Z,1.50
2024-02-06T21:04:29.579Z,4.20
2024-02-06T21:06:56.818Z,3.93
2024-02-06T21:09:23.982Z,2.33
2024-02-06T21:11:51.096Z,1.63
2024-02-06T21:14:18.255Z,1.50
2024-02-06T21:16:45.939Z,1.30
2024-02-06T21:19:13.273Z,1.53
2024-02-06T21:21:40.516Z,1.63
2024-02-06T21:24:07.708Z,4.63
2024-02-06T21:26:36.223Z,2.20
2024-02-06T21:29:03.994Z,1.20
2024-02-06T21:31:33.193Z,1.77
2024-02-06T21:34:01.012Z,1.30
2024-02-06T21:36:29.497Z,0.80
2024-02-06T21:38:56.684Z,2.10
2024-02-06T21:41:23.863Z,2.13
2024-02-06T21:43:52.189Z,2.10
2024-02-06T21:46:19.440Z,1.93
2024-02-06T21:48:46.868Z,2.43
2024-02-06T21:51:13.995Z,1.63
2024-02-06T21:53:41.134Z,2.73
2024-02-06T21:56:15.724Z,1.70
2024-02-06T21:58:49.625Z,4.10
2024-02-06T22:01:17.022Z,1.80
2024-02-06T22:03:44.331Z,4.77
2024-02-06T22:06:15.466Z,2.83
2024-02-06T22:08:43.336Z,3.13
2024-02-06T22:11:10.476Z,1.80
2024-02-06T22:13:37.727Z,2.10
2024-02-06T22:16:05.182Z,1.33
2024-02-06T22:18:32.350Z,1.23
2024-02-06T22:20:59.498Z,1.43
2024-02-06T22:23:26.632Z,2.40
2024-02-06T22:25:53.886Z,1.50
2024-02-06T22:28:21.444Z,0.87
2024-02-06T22:30:48.589Z,2.37
2024-02-06T22:33:15.863Z,1.97
2024-02-06T22:35:43.222Z,2.20
2024-02-06T22:38:10.387Z,2.23
2024-02-06T22:40:37.601Z,3.10
2024-02-06T22:43:04.891Z,1.50
2024-02-06T22:45:32.279Z,3.63
2024-02-06T22:47:59.414Z,1.73
2024-02-06T22:50:26.624Z,1.73
2024-02-06T22:52:53.859Z,3.33
2024-02-06T22:55:21.140Z,2.13
2024-02-06T22:57:48.293Z,1.00
2024-02-06T23:00:30.215Z,1.17
2024-02-06T23:03:00.974Z,2.27
2024-02-06T23:05:28.415Z,3.97
2024-02-06T23:07:56.919Z,1.77
2024-02-06T23:10:24.437Z,1.03
2024-02-06T23:12:52.212Z,1.60
2024-02-06T23:15:20.969Z,1.37
2024-02-06T23:17:48.891Z,1.20
2024-02-06T23:20:16.574Z,2.43
2024-02-06T23:22:43.949Z,1.30
2024-02-06T23:25:11.576Z,3.50
2024-02-06T23:27:38.886Z,1.80
2024-02-06T23:30:07.444Z,1.43
2024-02-06T23:32:34.747Z,1.77
2024-02-06T23:35:02.090Z,2.00
2024-02-06T23:37:29.357Z,1.63
2024-02-06T23:39:56.472Z,1.23
2024-02-06T23:42:23.579Z,1.57
2024-02-06T23:44:50.796Z,2.37
2024-02-06T23:47:17.949Z,1.67
2024-02-06T23:49:45.191Z,2.50
2024-02-06T23:52:12.392Z,1.40
2024-02-06T23:54:39.744Z,1.93
2024-02-06T23:57:07.023Z,2.17
2024-02-06T23:59:34.200Z,1.73
